Time;durP1;ratioP1;P1;durP2;ratioP2;P2;SDS_P1;SDS_P2;PMS_P1;PMS_P2;Temp;Humidity;BMP_temperature;BMP_pressure;BME280_temperature;BME280_humidity;BME280_pressure;Samples;Min_cycle;Max_cycle;Signal;HPM_P1;HPM_P2
2022/08/23 00:01:19;;;;;;;0.00;0.00;;;;;;;17.13;100.00;97714.22;4874163;29;20150;-80
2022/08/23 00:03:46;;;;;;;0.00;0.00;;;;;;;17.16;100.00;97724.56;4873934;29;20434;-82
2022/08/23 00:06:14;;;;;;;0.00;0.00;;;;;;;17.13;100.00;97714.22;4872995;29;20442;-84
2022/08/23 00:08:44;;;;;;;0.00;0.00;;;;;;;17.13;100.00;97719.53;4877214;29;20053;-81
2022/08/23 00:11:26;;;;;;;0.00;0.00;;;;;;;17.17;100.00;97738.66;4880494;29;20084;-82
2022/08/23 00:13:54;;;;;;;0.00;0.00;;;;;;;17.22;100.00;97744.41;4869503;29;20113;-88
2022/08/23 00:16:22;;;;;;;0.00;0.00;;;;;;;17.19;100.00;97736.72;4864424;29;20048;-80
2022/08/23 00:18:50;;;;;;;0.00;0.00;;;;;;;17.16;100.00;97729.03;4878221;29;20045;-87
2022/08/23 00:21:17;;;;;;;0.00;0.00;;;;;;;17.13;100.00;97734.63;4868237;29;20048;-82
2022/08/23 00:23:46;;;;;;;0.00;0.00;;;;;;;17.09;100.00;97727.94;4870118;29;20075;-81
2022/08/23 00:26:14;;;;;;;0.00;0.00;;;;;;;17.10;100.00;97738.41;4864806;29;20143;-85
2022/08/23 00:28:41;;;;;;;0.00;0.00;;;;;;;17.07;100.00;97732.56;4871982;29;20128;-80
2022/08/23 00:31:09;;;;;;;0.00;0.00;;;;;;;17.05;100.00;97722.09;4872635;29;20050;-87
2022/08/23 00:33:36;;;;;;;0.00;0.00;;;;;;;17.04;100.00;97730.19;4870355;29;20404;-80
2022/08/23 00:36:04;;;;;;;0.00;0.00;;;;;;;17.06;100.00;97728.22;4877063;29;20053;-82
2022/08/23 00:38:32;;;;;;;0.00;0.00;;;;;;;17.08;100.00;97729.75;4878741;29;20131;-85
2022/08/23 00:41:01;;;;;;;0.00;0.00;;;;;;;17.12;100.00;97728.50;4869248;29;20047;-85
2022/08/23 00:49:17;;;;;;;0.00;0.00;;;;;;;17.29;100.00;97730.34;4878131;29;20056;-81
2022/08/23 00:51:49;;;;;;;0.00;0.00;;;;;;;17.33;100.00;97729.06;4878854;29;20041;-81
2022/08/23 00:54:17;;;;;;;0.00;0.00;;;;;;;17.34;100.00;97722.81;4877424;29;20113;-83
2022/08/23 00:56:46;;;;;;;0.00;0.00;;;;;;;17.42;100.00;97722.03;4869888;29;20432;-81
2022/08/23 00:59:13;;;;;;;0.00;0.00;;;;;;;17.46;100.00;97724.25;4878232;29;20053;-82
2022/08/23 01:01:42;;;;;;;0.00;0.00;;;;;;;17.54;100.00;97728.81;4874941;29;20041;-81
2022/08/23 01:04:13;;;;;;;0.00;0.00;;;;;;;17.65;100.00;97724.16;4870084;29;20131;-81
2022/08/23 01:06:47;;;;;;;0.00;0.00;;;;;;;17.64;100.00;97724.28;4877737;29;20045;-86
2022/08/23 01:09:18;;;;;;;0.00;0.00;;;;;;;17.68;100.00;97720.34;4893539;29;20154;-82
2022/08/23 01:11:52;;;;;;;0.00;0.00;;;;;;;17.71;100.00;97709.41;4879132;29;20077;-82
2022/08/23 01:14:25;;;;;;;0.00;0.00;;;;;;;17.74;100.00;97714.44;4878221;29;20504;-79
2022/08/23 01:17:00;;;;;;;0.00;0.00;;;;;;;17.77;100.00;97708.81;4877749;29;20109;-87
2022/08/23 01:19:30;;;;;;;0.00;0.00;;;;;;;17.81;100.00;97710.22;4877974;29;20067;-81
2022/08/23 01:22:05;;;;;;;0.00;0.00;;;;;;;17.85;100.00;97708.06;4878549;29;20519;-81
2022/08/23 01:24:35;;;;;;;0.00;0.00;;;;;;;17.90;100.00;97703.13;4873072;29;20090;-81
2022/08/23 01:27:03;;;;;;;0.00;0.00;;;;;;;17.89;100.00;97706.78;4866614;29;20453;-81
2022/08/23 01:29:30;;;;;;;0.00;0.00;;;;;;;17.92;100.00;97707.34;4878295;29;20413;-88
2022/08/23 01:31:58;;;;;;;0.00;0.00;;;;;;;17.94;100.00;97709.84;4875203;29;20064;-82
2022/08/23 01:34:28;;;;;;;0.00;0.00;;;;;;;17.97;100.00;97696.22;4871693;29;20052;-82
2022/08/23 01:36:58;;;;;;;0.00;0.00;;;;;;;18.04;100.00;97697.28;4877897;29;20048;-89
2022/08/23 01:39:26;;;;;;;0.00;0.00;;;;;;;18.09;100.00;97698.50;4877196;29;20037;-86
2022/08/23 01:41:55;;;;;;;0.00;0.00;;;;;;;18.07;100.00;97692.50;4877899;29;20045;-81
2022/08/23 01:44:23;;;;;;;0.00;0.00;;;;;;;18.11;100.00;97701.84;4874852;29;20054;-82
2022/08/23 01:46:50;;;;;;;0.00;0.00;;;;;;;18.10;100.00;97705.50;4877533;29;20141;-80
2022/08/23 01:49:18;;;;;;;0.00;0.00;;;;;;;18.11;100.00;97701.84;4857717;29;20053;-80
2022/08/23 01:51:46;;;;;;;0.00;0.00;;;;;;;18.11;100.00;97704.50;4879237;29;20045;-85
2022/08/23 01:54:14;;;;;;;0.00;0.00;;;;;;;18.15;100.00;97702.38;4880829;29;20062;-79
2022/08/23 01:56:42;;;;;;;0.00;0.00;;;;;;;18.20;100.00;97714.22;4880428;29;20055;-79
2022/08/23 01:59:14;;;;;;;0.00;0.00;;;;;;;18.24;100.00;97706.78;4870575;29;20409;-80
2022/08/23 02:01:52;;;;;;;0.00;0.00;;;;;;;18.28;100.00;97705.50;4872872;29;20056;-82
2022/08/23 02:04:21;;;;;;;0.00;0.00;;;;;;;18.30;100.00;97716.81;4861877;29;20473;-82
2022/08/23 02:06:48;;;;;;;0.00;0.00;;;;;;;18.27;100.00;97717.97;4877527;29;20077;-86
2022/08/23 02:09:22;;;;;;;0.00;0.00;;;;;;;18.22;100.00;97720.25;4865865;29;20041;-87
2022/08/23 02:11:50;;;;;;;0.00;0.00;;;;;;;18.19;100.00;97711.72;4877304;29;20408;-79
2022/08/23 02:14:21;;;;;;;0.00;0.00;;;;;;;18.19;100.00;97709.06;4877384;29;20053;-80
2022/08/23 02:16:56;;;;;;;0.00;0.00;;;;;;;18.20;100.00;97708.09;4875049;29;20045;-84
2022/08/23 02:19:23;;;;;;;0.00;0.00;;;;;;;18.17;100.00;97711.06;4881814;29;20061;-86
2022/08/23 02:21:51;;;;;;;0.00;0.00;;;;;;;18.15;100.00;97708.53;4873908;29;20052;-87
2022/08/23 02:24:21;;;;;;;0.00;0.00;;;;;;;18.11;100.00;97716.97;4858914;29;20386;-82
2022/08/23 02:26:52;;;;;;;0.00;0.00;;;;;;;18.12;100.00;97711.50;4877860;29;20115;-80
2022/08/23 02:29:23;;;;;;;0.00;0.00;;;;;;;18.12;100.00;97708.00;4876970;29;20049;-88
2022/08/23 02:31:53;;;;;;;0.00;0.00;;;;;;;18.09;100.00;97706.47;4877190;29;20049;-80
2022/08/23 02:34:20;;;;;;;0.00;0.00;;;;;;;18.12;100.00;97702.66;4876952;29;20124;-90
2022/08/23 02:36:49;;;;;;;0.00;0.00;;;;;;;18.12;100.00;97713.31;4877470;29;20041;-82
2022/08/23 02:39:18;;;;;;;0.00;0.00;;;;;;;18.15;100.00;97702.38;4878411;29;20053;-81
2022/08/23 02:41:45;;;;;;;0.00;0.00;;;;;;;18.19;100.00;97717.03;4877012;29;20060;-88
2022/08/23 02:44:13;;;;;;;0.00;0.00;;;;;;;18.17;100.00;97719.03;4874342;29;20095;-79
2022/08/23 02:46:44;;;;;;;0.00;0.00;;;;;;;18.20;100.00;97716.91;4867906;29;20072;-88
2022/08/23 02:49:12;;;;;;;0.00;0.00;;;;;;;18.18;100.00;97718.91;4875493;29;20476;-89
2022/08/23 02:51:40;;;;;;;0.00;0.00;;;;;;;18.18;100.00;97720.72;4863919;29;20057;-79
2022/08/23 02:54:07;;;;;;;0.00;0.00;;;;;;;18.19;100.00;97728.53;4864067;29;20049;-81
2022/08/23 02:56:35;;;;;;;0.00;0.00;;;;;;;18.15;100.00;97724.50;4872528;29;20045;-89
2022/08/23 02:59:04;;;;;;;0.00;0.00;;;;;;;18.13;100.00;97726.47;4877098;29;20056;-84
2022/08/23 03:01:34;;;;;;;0.00;0.00;;;;;;;18.14;100.00;97722.00;4865544;29;20053;-79
2022/08/23 03:04:16;;;;;;;0.00;0.00;;;;;;;18.17;100.00;97727.84;4876058;29;20511;-86
2022/08/23 03:06:44;;;;;;;0.00;0.00;;;;;;;18.21;100.00;97723.06;4876733;29;20056;-87
2022/08/23 03:09:12;;;;;;;0.00;0.00;;;;;;;18.24;100.00;97731.56;4865739;29;20124;-89
2022/08/23 03:11:44;;;;;;;0.00;0.00;;;;;;;18.29;100.00;97723.13;4877189;29;20053;-79
2022/08/23 03:14:13;;;;;;;0.00;0.00;;;;;;;18.30;100.00;97722.97;4876274;29;20120;-89
2022/08/23 03:16:41;;;;;;;0.00;0.00;;;;;;;18.35;100.00;97723.34;4878759;29;20137;-88
2022/08/23 03:19:09;;;;;;;0.00;0.00;;;;;;;18.30;100.00;97730.97;4879179;29;20048;-80
2022/08/23 03:21:38;;;;;;;0.00;0.00;;;;;;;18.29;100.00;97739.97;4880293;29;20172;-80
2022/08/23 03:24:06;;;;;;;0.00;0.00;;;;;;;18.28;100.00;97735.59;4880495;29;20131;-85
2022/08/23 03:26:35;;;;;;;0.00;0.00;;;;;;;18.27;100.00;97735.75;4879602;29;20056;-80
2022/08/23 03:29:03;;;;;;;0.00;0.00;;;;;;;18.27;100.00;97733.94;4880639;29;20048;-80
2022/08/23 03:31:38;;;;;;;0.00;0.00;;;;;;;18.26;100.00;97748.25;4869849;29;20071;-80
2022/08/23 03:34:11;;;;;;;0.00;0.00;;;;;;;18.24;100.00;97744.91;4880008;29;20045;-86
2022/08/23 03:36:40;;;;;;;0.00;0.00;;;;;;;18.25;100.00;97741.25;4880020;29;20536;-80
2022/08/23 03:39:07;;;;;;;0.00;0.00;;;;;;;18.23;100.00;97745.03;4880237;29;20057;-79
2022/08/23 03:41:35;;;;;;;0.00;0.00;;;;;;;18.27;100.00;97733.94;4878786;29;20048;-79
2022/08/23 03:44:03;;;;;;;0.00;0.00;;;;;;;18.26;100.00;97731.44;4879836;29;20079;-81
2022/08/23 03:46:35;;;;;;;0.00;0.00;;;;;;;18.25;100.00;97735.94;4878826;29;20058;-81
2022/08/23 03:49:04;;;;;;;0.00;0.00;;;;;;;18.29;100.00;97725.81;4879521;29;20057;-87
2022/08/23 03:52:02;;;;;;;0.00;0.00;;;;;;;18.29;100.00;97731.13;4875794;29;20508;-79
2022/08/23 03:54:33;;;;;;;0.00;0.00;;;;;;;18.23;100.00;97743.22;4865879;29;20041;-87
2022/08/23 03:57:03;;;;;;;0.00;0.00;;;;;;;18.21;100.00;97737.22;4875571;29;20643;-80
2022/08/23 03:59:36;;;;;;;0.00;0.00;;;;;;;18.21;100.00;97744.38;4878601;29;20045;-81
2022/08/23 04:02:07;;;;;;;0.00;0.00;;;;;;;18.17;100.00;97743.00;4870653;29;20052;-79
2022/08/23 04:04:36;;;;;;;0.00;0.00;;;;;;;18.15;100.00;97750.28;4878927;29;20515;-83
2022/08/23 04:07:24;;;;;;;0.00;0.00;;;;;;;18.18;100.00;97755.31;4880190;29;20500;-79
2022/08/23 04:09:56;;;;;;;0.00;0.00;;;;;;;18.26;100.00;97756.25;4879575;29;20049;-79
2022/08/23 04:12:27;;;;;;;0.00;0.00;;;;;;;18.36;100.00;97757.00;4869171;29;20041;-79
2022/08/23 04:14:54;;;;;;;0.00;0.00;;;;;;;18.37;100.00;97753.34;4868279;29;20045;-79
2022/08/23 04:17:23;;;;;;;0.00;0.00;;;;;;;18.34;100.00;97761.63;4876736;29;20131;-79
2022/08/23 04:19:53;;;;;;;0.00;0.00;;;;;;;18.26;100.00;97768.72;4879006;29;20561;-79
2022/08/23 04:22:21;;;;;;;0.00;0.00;;;;;;;18.22;100.00;97764.69;4878654;29;20403;-79
2022/08/23 04:24:50;;;;;;;0.00;0.00;;;;;;;18.25;100.00;97765.22;4875771;29;20055;-88
2022/08/23 04:27:18;;;;;;;0.00;0.00;;;;;;;18.27;100.00;97765.91;4873593;29;20033;-86
2022/08/23 04:29:47;;;;;;;0.00;0.00;;;;;;;18.26;100.00;97766.91;4877878;29;20050;-84
2022/08/23 04:32:15;;;;;;;0.00;0.00;;;;;;;18.30;100.00;97765.59;4875460;29;20041;-89
2022/08/23 04:34:43;;;;;;;0.00;0.00;;;;;;;18.31;100.00;97774.44;4881727;29;20138;-82
2022/08/23 04:37:11;;;;;;;0.00;0.00;;;;;;;18.33;100.00;97773.28;4867458;29;20408;-86
2022/08/23 04:42:25;;;;;;;0.00;0.00;;;;;;;18.45;100.00;97780.03;4868514;29;20560;-89
2022/08/23 04:44:53;;;;;;;0.00;0.00;;;;;;;18.42;100.00;97775.03;4866809;29;20053;-79
2022/08/23 04:47:20;;;;;;;0.00;0.00;;;;;;;18.39;100.00;97777.97;4870638;29;20044;-88
2022/08/23 04:49:49;;;;;;;0.00;0.00;;;;;;;18.43;100.00;97782.00;4865371;29;20069;-83
2022/08/23 04:52:17;;;;;;;0.00;0.00;;;;;;;18.51;100.00;97783.94;4875596;29;20045;-78
2022/08/23 04:54:45;;;;;;;0.00;0.00;;;;;;;18.52;100.00;97777.59;4866276;29;20123;-79
2022/08/23 04:57:44;;;;;;;0.00;0.00;;;;;;;18.48;100.00;97770.91;4889370;29;20041;-86
2022/08/23 05:00:16;;;;;;;0.00;0.00;;;;;;;18.48;100.00;97784.22;4872989;29;20576;-79
2022/08/23 05:02:51;;;;;;;0.00;0.00;;;;;;;18.48;100.00;97778.91;4876606;29;20120;-78
2022/08/23 05:05:20;;;;;;;0.00;0.00;;;;;;;18.53;100.00;97774.78;4876874;29;20105;-89
2022/08/23 05:07:47;;;;;;;0.00;0.00;;;;;;;18.56;100.00;97776.28;4873335;29;20052;-81
2022/08/23 05:10:16;;;;;;;0.00;0.00;;;;;;;18.65;100.00;97780.75;4870641;29;20486;-84
2022/08/23 05:12:52;;;;;;;0.00;0.00;;;;;;;18.71;100.00;97785.44;4867497;29;20037;-80
2022/08/23 05:15:21;;;;;;;0.00;0.00;;;;;;;18.78;100.00;97789.16;4882953;29;20081;-81
2022/08/23 05:17:57;;;;;;;0.00;0.00;;;;;;;18.87;100.00;97791.72;4873046;29;20469;-79
2022/08/23 05:20:25;;;;;;;0.00;0.00;;;;;;;18.98;100.00;97798.66;4865152;29;20416;-86
2022/08/23 05:22:53;;;;;;;0.00;0.00;;;;;;;19.02;100.00;97795.50;4864943;29;20057;-89
2022/08/23 05:28:16;;;;;;;0.00;0.00;;;;;;;19.02;100.00;97800.03;4864183;29;20051;-91
2022/08/23 05:30:45;;;;;;;0.00;0.00;;;;;;;19.15;100.00;97805.75;4862400;29;20048;-92
2022/08/23 05:33:13;;;;;;;0.00;0.00;;;;;;;19.24;100.00;97810.16;4874208;29;20041;-89
2022/08/23 05:35:41;;;;;;;0.00;0.00;;;;;;;19.19;100.00;97801.78;4865724;29;20397;-81
2022/08/23 05:38:08;;;;;;;0.00;0.00;;;;;;;19.15;100.00;97809.28;4869641;29;20044;-85
2022/08/23 05:40:36;;;;;;;0.00;0.00;;;;;;;19.12;100.00;97814.91;4871791;29;20048;-90
2022/08/23 05:43:09;;;;;;;0.00;0.00;;;;;;;19.11;100.00;97815.06;4868316;29;20493;-88
2022/08/23 05:45:39;;;;;;;0.00;0.00;;;;;;;19.11;100.00;97809.72;4880488;29;20074;-82
2022/08/23 05:48:06;;;;;;;0.00;0.00;;;;;;;19.10;100.00;97814.25;4882527;29;20041;-81
2022/08/23 05:50:55;;;;;;;0.00;0.00;;;;;;;19.12;100.00;97817.59;4870300;29;20428;-88
2022/08/23 05:53:23;;;;;;;0.00;0.00;;;;;;;19.25;100.00;97812.69;4869760;29;20124;-89
2022/08/23 05:55:51;;;;;;;0.00;0.00;;;;;;;19.35;100.00;97813.38;4876364;29;20061;-86
2022/08/23 05:58:21;;;;;;;0.00;0.00;;;;;;;19.42;100.00;97813.66;4875350;29;20120;-81
2022/08/23 06:00:52;;;;;;;0.00;0.00;;;;;;;19.54;100.00;97815.88;4867150;29;20068;-81
2022/08/23 06:03:19;;;;;;;0.00;0.00;;;;;;;19.62;100.00;97807.91;4876023;29;20500;-82
2022/08/23 06:05:47;;;;;;;0.00;0.00;;;;;;;19.73;100.00;97815.63;4866647;29;20045;-81
2022/08/23 06:08:15;;;;;;;0.00;0.00;;;;;;;19.82;100.00;97811.97;4874724;29;20037;-89
2022/08/23 06:10:42;;;;;;;0.00;0.00;;;;;;;19.92;100.00;97818.03;4872914;29;20045;-89
2022/08/23 06:13:26;;;;;;;0.00;0.00;;;;;;;19.98;100.00;97827.25;4866727;29;20041;-83
2022/08/23 06:15:56;;;;;;;0.00;0.00;;;;;;;19.98;100.00;97827.25;4865384;29;20049;-80
2022/08/23 06:18:24;;;;;;;0.00;0.00;;;;;;;19.96;100.00;97830.06;4870152;29;20477;-90
2022/08/23 06:21:02;;;;;;;0.00;0.00;;;;;;;19.90;100.00;97838.72;4873785;29;20042;-82
2022/08/23 06:23:41;;;;;;;0.00;0.00;;;;;;;19.90;100.00;97840.56;4867570;29;20081;-90
2022/08/23 06:26:13;;;;;;;0.00;0.00;;;;;;;19.85;100.00;97829.50;4883370;29;20048;-87
2022/08/23 06:28:42;;;;;;;0.00;0.00;;;;;;;19.78;100.00;97836.47;4869817;29;20052;-88
2022/08/23 06:31:11;;;;;;;0.00;0.00;;;;;;;19.69;100.00;97838.31;4874832;29;20050;-86
2022/08/23 06:33:44;;;;;;;0.00;0.00;;;;;;;19.73;100.00;97841.47;4870482;29;20045;-87
2022/08/23 06:36:41;;;;;;;0.00;0.00;;;;;;;19.67;100.00;97840.28;4865519;29;20061;-82
2022/08/23 06:39:23;;;;;;;0.00;0.00;;;;;;;19.67;100.00;97845.63;4864335;29;20390;-81
2022/08/23 06:42:17;;;;;;;0.00;0.00;;;;;;;19.78;100.00;97848.00;4870443;29;20053;-83
2022/08/23 06:44:45;;;;;;;0.00;0.00;;;;;;;19.81;100.00;97847.69;4864728;29;20057;-81
2022/08/23 06:47:33;;;;;;;0.00;0.00;;;;;;;19.79;100.00;97849.69;4862475;29;20048;-82
2022/08/23 06:50:01;;;;;;;0.00;0.00;;;;;;;19.80;100.00;97851.38;4870829;29;20109;-81
2022/08/23 06:52:48;;;;;;;0.00;0.00;;;;;;;19.80;100.00;97853.19;4875921;29;20112;-86
2022/08/23 06:55:53;;;;;;;0.00;0.00;;;;;;;19.88;100.00;97846.06;4820003;29;20053;-86
2022/08/23 06:58:25;;;;;;;0.00;0.00;;;;;;;19.88;100.00;97854.06;4801846;29;20111;-85
2022/08/23 07:01:31;;;;;;;0.00;0.00;;;;;;;19.90;100.00;97857.41;4759585;30;20733;-86
2022/08/23 07:04:11;;;;;;;0.00;0.00;;;;;;;19.93;100.00;97857.09;4743964;30;20611;-82
2022/08/23 07:06:58;;;;;;;0.00;0.00;;;;;;;19.98;100.00;97854.78;4756193;30;20064;-86
2022/08/23 07:09:26;;;;;;;0.00;0.00;;;;;;;19.98;100.00;97861.97;4755067;30;20052;-84
2022/08/23 07:11:54;;;;;;;0.00;0.00;;;;;;;19.97;100.00;97863.78;4751604;30;20052;-81
2022/08/23 07:14:24;;;;;;;0.00;0.00;;;;;;;20.02;100.00;97856.13;4762153;30;20052;-81
2022/08/23 07:16:53;;;;;;;0.00;0.00;;;;;;;20.07;100.00;97855.63;4758812;30;20056;-88
2022/08/23 07:19:25;;;;;;;0.00;0.00;;;;;;;20.11;100.00;97859.66;4757717;30;20055;-84
2022/08/23 07:21:54;;;;;;;0.00;0.00;;;;;;;20.18;100.00;97856.22;4765485;30;20060;-88
2022/08/23 07:24:22;;;;;;;0.00;0.00;;;;;;;20.23;100.00;97863.75;4764749;30;20059;-84
2022/08/23 07:26:52;;;;;;;0.00;0.00;;;;;;;20.22;100.00;97870.06;4780343;29;20060;-90
2022/08/23 07:29:22;;;;;;;0.00;0.00;;;;;;;20.36;100.00;97866.78;4804029;29;20066;-89
2022/08/23 07:31:52;;;;;;;0.00;0.00;;;;;;;20.49;100.00;97867.16;4803439;29;20051;-87
2022/08/23 07:34:21;;;;;;;0.00;0.00;;;;;;;20.56;100.00;97868.19;4821478;29;20054;-86
2022/08/23 07:36:51;;;;;;;0.00;0.00;;;;;;;20.53;100.00;97873.84;4839187;29;20049;-84
2022/08/23 07:39:20;;;;;;;0.00;0.00;;;;;;;20.57;100.00;97868.00;4874214;29;20041;-80
2022/08/23 07:41:47;;;;;;;0.00;0.00;;;;;;;20.59;100.00;97868.66;4874150;29;20508;-90
2022/08/23 07:44:16;;;;;;;0.00;0.00;;;;;;;20.72;100.00;97870.88;4870632;29;20101;-80
2022/08/23 07:46:47;;;;;;;0.00;0.00;;;;;;;20.85;100.00;97867.69;4873338;29;20045;-81
2022/08/23 07:49:16;;;;;;;0.00;0.00;;;;;;;21.19;100.00;97857.69;4869071;29;20052;-90
2022/08/23 07:51:50;;;;;;;0.00;0.00;;;;;;;21.56;100.00;97860.63;4873088;29;20125;-80
2022/08/23 07:54:21;;;;;;;0.00;0.00;;;;;;;21.84;100.00;97864.63;4868462;29;20042;-90
2022/08/23 07:57:07;;;;;;;0.00;0.00;;;;;;;21.85;100.00;97871.63;4872976;29;20048;-81
2022/08/23 07:59:55;;;;;;;0.00;0.00;;;;;;;21.71;100.00;97865.16;4871946;29;20056;-81
2022/08/23 08:05:56;;;;;;;0.00;0.00;;;;;;;21.40;100.00;97874.88;4840888;29;20517;-77
2022/08/23 08:08:25;;;;;;;0.00;0.00;;;;;;;21.51;100.00;97876.41;4841850;29;20037;-80
2022/08/23 08:10:54;;;;;;;0.00;0.00;;;;;;;21.61;100.00;97872.50;4841889;29;20053;-84
2022/08/23 08:13:21;;;;;;;0.00;0.00;;;;;;;21.60;100.00;97872.69;4840103;29;20034;-77
2022/08/23 08:15:49;;;;;;;0.00;0.00;;;;;;;21.58;100.00;97875.53;4839451;29;20038;-80
2022/08/23 08:18:17;;;;;;;0.00;0.00;;;;;;;21.67;100.00;97879.06;4836046;29;20159;-78
2022/08/23 08:21:04;;;;;;;0.00;0.00;;;;;;;21.84;100.00;97876.16;4839923;29;20124;-75
2022/08/23 08:23:51;;;;;;;0.00;0.00;;;;;;;21.86;100.00;97884.88;4838418;29;20569;-75
2022/08/23 08:26:39;;;;;;;0.00;0.00;;;;;;;22.15;100.00;97884.25;4839207;29;20455;-76
2022/08/23 08:29:09;;;;;;;0.00;0.00;;;;;;;22.74;100.00;97886.28;4855619;29;20057;-77
2022/08/23 08:31:38;;;;;;;0.00;0.00;;;;;;;23.08;100.00;97889.41;4845321;29;20071;-76
2022/08/23 08:34:06;;;;;;;0.00;0.00;;;;;;;23.27;100.00;97889.78;4839830;29;20049;-78
2022/08/23 08:36:38;;;;;;;0.00;0.00;;;;;;;23.38;100.00;97893.88;4841232;29;20050;-77
2022/08/23 08:39:13;;;;;;;0.00;0.00;;;;;;;23.29;100.00;97898.50;4837581;29;20046;-79
2022/08/23 08:41:55;;;;;;;0.00;0.00;;;;;;;23.24;100.00;97900.06;4835932;29;20046;-77
2022/08/23 08:44:33;;;;;;;0.00;0.00;;;;;;;23.10;100.00;97899.00;4855632;29;20497;-78
2022/08/23 08:47:05;;;;;;;0.00;0.00;;;;;;;23.01;100.00;97907.28;4849017;29;20050;-77
2022/08/23 08:49:35;;;;;;;;;;;;;;;22.89;100.00;97906.81;4842305;29;20065;-84
2022/08/23 08:52:13;;;;;;;0.00;0.00;;;;;;;22.73;100.00;97908.78;4839668;29;19928;-79
2022/08/23 08:54:44;;;;;;;0.00;0.00;;;;;;;22.64;100.00;97912.50;4843150;29;20050;-77
2022/08/23 08:57:16;;;;;;;0.00;0.00;;;;;;;22.71;100.00;97902.75;4841209;29;20466;-80
2022/08/23 08:59:55;;;;;;;0.00;0.00;;;;;;;22.78;100.00;97909.06;4840272;29;20053;-74
2022/08/23 09:02:33;;;;;;;0.00;0.00;;;;;;;22.85;100.00;97910.03;4839407;29;20122;-79
2022/08/23 09:05:11;;;;;;;0.00;0.00;;;;;;;22.92;100.00;97914.53;4853761;29;20578;-77
2022/08/23 09:27:03;;;;;;;0.00;0.00;;;;;;;24.43;100.00;97915.94;5103685;27;20389;-83
2022/08/23 09:29:33;;;;;;;0.00;0.00;;;;;;;24.60;100.00;97916.56;5098488;28;20398;-83
2022/08/23 09:32:02;;;;;;;0.00;0.00;;;;;;;24.72;100.00;97915.03;5106121;28;20097;-82
2022/08/23 09:34:42;;;;;;;0.00;0.00;;;;;;;24.97;100.00;97924.47;5093341;28;20040;-76
2022/08/23 09:37:17;;;;;;;0.00;0.00;;;;;;;25.12;100.00;97917.16;5088081;28;20511;-76
2022/08/23 09:39:48;;;;;;;0.00;0.00;;;;;;;25.39;99.39;97924.47;5087377;28;20051;-80
2022/08/23 09:42:31;;;;;;;0.00;0.00;;;;;;;25.88;97.75;97919.91;5089355;28;20044;-75
2022/08/23 09:44:59;;;;;;;0.00;0.00;;;;;;;25.84;94.78;97919.47;5106353;28;20035;-76
2022/08/23 09:47:40;;;;;;;0.00;0.00;;;;;;;25.93;95.31;97910.22;5102954;28;20490;-79
2022/08/23 09:50:10;;;;;;;0.00;0.00;;;;;;;25.80;93.65;97911.97;5087406;28;20131;-76
2022/08/23 09:52:40;;;;;;;0.00;0.00;;;;;;;25.38;94.46;97915.56;5079476;28;20547;-83
2022/08/23 09:55:25;;;;;;;0.00;0.00;;;;;;;25.17;96.18;97920.94;5083502;28;20441;-77
2022/08/23 09:57:54;;;;;;;0.00;0.00;;;;;;;25.18;96.17;97922.59;5085297;28;20087;-79
2022/08/23 10:00:26;;;;;;;0.00;0.00;;;;;;;25.24;96.11;97919.16;5086299;28;20460;-76
2022/08/23 10:03:01;;;;;;;0.00;0.00;;;;;;;25.09;95.89;97907.63;5087698;28;20046;-77
2022/08/23 10:05:37;;;;;;;0.00;0.00;;;;;;;24.97;96.21;97922.63;5086967;28;20044;-75
2022/08/23 10:08:08;;;;;;;0.00;0.00;;;;;;;24.99;96.98;97917.03;5087225;28;20040;-79
2022/08/23 10:10:45;;;;;;;0.00;0.00;;;;;;;25.04;95.00;97922.69;5086427;28;20090;-83
2022/08/23 10:13:17;;;;;;;0.00;0.00;;;;;;;25.08;96.27;97915.88;5083028;28;20453;-79
2022/08/23 10:15:52;;;;;;;0.00;0.00;;;;;;;25.32;94.26;97918.19;5086946;28;20047;-76
2022/08/23 10:18:33;;;;;;;0.00;0.00;;;;;;;25.26;92.69;97911.72;5083916;28;20109;-83
2022/08/23 10:21:07;;;;;;;0.00;0.00;;;;;;;25.14;92.15;97915.94;5084202;28;20513;-76
2022/08/23 10:23:45;;;;;;;0.00;0.00;;;;;;;25.01;91.96;97918.50;5088502;28;20513;-77
2022/08/23 10:26:20;;;;;;;0.00;0.00;;;;;;;25.26;90.09;97930.56;5083535;28;20044;-78
2022/08/23 10:31:50;;;;;;;0.00;0.00;;;;;;;25.87;92.52;97921.75;5068627;28;20086;-78
2022/08/23 10:34:34;;;;;;;0.00;0.00;;;;;;;26.08;90.86;97918.16;5071698;28;20414;-77
2022/08/23 10:37:20;;;;;;;0.00;0.00;;;;;;;26.52;89.40;97921.31;5071977;28;20494;-77
2022/08/23 10:39:55;;;;;;;0.00;0.00;;;;;;;26.58;86.69;97924.03;5074807;28;20055;-77
2022/08/23 10:42:42;;;;;;;0.00;0.00;;;;;;;26.72;86.94;97921.44;5090907;28;20037;-77
2022/08/23 10:45:18;;;;;;;0.00;0.00;;;;;;;26.85;86.30;97918.81;5070934;28;20056;-78
2022/08/23 10:47:58;;;;;;;0.00;0.00;;;;;;;27.17;86.86;97924.28;5071219;28;20040;-85
2022/08/23 10:50:30;;;;;;;0.00;0.00;;;;;;;27.45;84.55;97922.22;5072207;28;20447;-79
2022/08/23 10:53:07;;;;;;;0.00;0.00;;;;;;;27.71;82.44;97916.84;5052507;28;20455;-84
2022/08/23 10:55:53;;;;;;;0.00;0.00;;;;;;;27.69;81.87;97918.06;5068558;28;20402;-78
2022/08/23 10:58:27;;;;;;;0.00;0.00;;;;;;;27.03;78.62;97922.56;5072376;28;20127;-83
2022/08/23 11:00:57;;;;;;;0.00;0.00;;;;;;;26.81;81.17;97931.84;5072896;28;20050;-78
2022/08/23 11:03:29;;;;;;;0.00;0.00;;;;;;;27.16;81.85;97924.47;5054921;28;20055;-78
2022/08/23 11:06:25;;;;;;;0.00;0.00;;;;;;;27.52;80.49;97922.25;5072640;28;20041;-84
2022/08/23 11:09:02;;;;;;;0.00;0.00;;;;;;;27.25;79.16;97917.81;5060269;28;20401;-84
2022/08/23 11:11:41;;;;;;;0.00;0.00;;;;;;;26.91;79.50;97924.22;5072908;28;20150;-79
2022/08/23 11:14:10;;;;;;;0.00;0.00;;;;;;;26.94;78.71;97923.81;5072231;28;20045;-78
2022/08/23 11:16:45;;;;;;;0.00;0.00;;;;;;;26.83;79.56;97937.91;5072029;28;20114;-83
2022/08/23 11:19:35;;;;;;;0.00;0.00;;;;;;;26.53;79.71;97933.78;5070889;28;20482;-79
2022/08/23 11:22:15;;;;;;;0.00;0.00;;;;;;;26.45;80.63;97937.50;5071947;28;20033;-79
2022/08/23 11:24:58;;;;;;;0.00;0.00;;;;;;;26.34;80.24;97929.97;5068314;28;20048;-79
2022/08/23 11:27:33;;;;;;;0.00;0.00;;;;;;;26.54;81.07;97933.59;5068636;28;20123;-79
2022/08/23 11:30:46;;;;;;;0.00;0.00;;;;;;;26.55;80.44;97921.78;5065213;28;20052;-78
2022/08/23 11:33:24;;;;;;;0.00;0.00;;;;;;;26.31;79.90;97929.53;5052793;28;20045;-80
2022/08/23 11:35:55;;;;;;;0.00;0.00;;;;;;;25.98;81.24;97926.59;5072510;28;20115;-77
2022/08/23 11:39:17;;;;;;;0.00;0.00;;;;;;;25.55;82.39;97941.19;5071152;28;20123;-78
2022/08/23 11:42:04;;;;;;;0.00;0.00;;;;;;;25.88;82.82;97931.50;4950432;28;20119;-81
2022/08/23 11:44:39;;;;;;;0.00;0.00;;;;;;;26.23;79.60;97940.47;4949936;29;20051;-83
2022/08/23 11:47:11;;;;;;;0.00;0.00;;;;;;;26.14;80.84;97926.34;4934296;29;20068;-77
2022/08/23 11:50:18;;;;;;;0.00;0.00;;;;;;;25.87;81.67;97934.44;4950048;28;20075;-77
2022/08/23 11:53:14;;;;;;;0.00;0.00;;;;;;;25.70;82.03;97944.69;4950338;28;20434;-79
2022/08/23 11:56:14;;;;;;;0.00;0.00;;;;;;;25.83;82.21;97941.22;4953011;28;20058;-77
2022/08/23 11:59:03;;;;;;;0.00;0.00;;;;;;;25.70;83.46;97933.91;4951319;28;20055;-77
2022/08/23 12:01:33;;;;;;;0.00;0.00;;;;;;;25.54;83.71;97944.13;4953647;28;20047;-78
2022/08/23 12:04:09;;;;;;;0.00;0.00;;;;;;;25.48;83.69;97942.16;4951702;29;20047;-77
2022/08/23 12:06:44;;;;;;;0.00;0.00;;;;;;;25.51;81.67;97939.09;4951652;28;20058;-83
2022/08/23 12:09:40;;;;;;;0.00;0.00;;;;;;;25.59;82.04;97934.44;4951864;28;20142;-79
2022/08/23 12:12:14;;;;;;;0.00;0.00;;;;;;;25.63;81.08;97927.63;4950974;28;20039;-79
2022/08/23 12:14:55;;;;;;;0.00;0.00;;;;;;;25.83;83.28;97933.13;4934170;29;20070;-78
2022/08/23 12:17:56;;;;;;;0.00;0.00;;;;;;;25.85;80.52;97937.31;5011908;28;20540;-77
2022/08/23 12:20:32;;;;;;;0.00;0.00;;;;;;;25.93;79.77;97934.47;5066767;28;20048;-76
2022/08/23 12:23:13;;;;;;;0.00;0.00;;;;;;;26.03;77.53;97932.25;5084354;28;20057;-77
2022/08/23 12:25:41;;;;;;;0.00;0.00;;;;;;;26.20;77.86;97930.94;5067187;28;20044;-77
2022/08/23 12:28:28;;;;;;;0.00;0.00;;;;;;;26.30;79.60;97925.16;5066775;28;20123;-76
2022/08/23 12:31:01;;;;;;;0.00;0.00;;;;;;;26.42;79.55;97931.66;5066851;28;20044;-77
2022/08/23 12:33:41;;;;;;;0.00;0.00;;;;;;;26.42;79.43;97932.50;5069278;28;20129;-77